createdAt,value
2019-04-29T04:00:43.836Z,92.00
2019-04-29T04:02:39.590Z,112.00
2019-04-29T04:04:39.561Z,144.00
2019-04-29T04:06:39.564Z,176.00
2019-04-29T04:08:39.518Z,220.00
2019-04-29T04:10:39.510Z,288.00
2019-04-29T04:12:39.530Z,364.00
2019-04-29T04:14:39.488Z,456.00
2019-04-29T04:16:39.451Z,544.00
2019-04-29T04:18:39.465Z,652.00
2019-04-29T04:20:39.411Z,828.00
2019-04-29T04:22:39.402Z,1012.00
2019-04-29T04:24:39.366Z,1168.00
2019-04-29T04:26:39.334Z,1288.00
2019-04-29T04:28:39.404Z,1384.00
2019-04-29T04:30:39.295Z,1468.00
2019-04-29T04:32:39.297Z,1592.00
2019-04-29T04:34:39.249Z,1744.00
2019-04-29T04:36:39.298Z,1944.00
2019-04-29T04:38:39.213Z,2112.00
2019-04-29T04:40:39.198Z,2276.00
2019-04-29T04:42:39.164Z,2576.00
2019-04-29T04:44:39.162Z,2508.00
2019-04-29T04:46:39.135Z,2548.00
2019-04-29T04:48:39.134Z,2596.00
2019-04-29T04:50:39.079Z,2676.00
2019-04-29T04:52:39.070Z,3068.00
2019-04-29T04:54:39.050Z,2984.00
2019-04-29T04:56:39.007Z,3028.00
2019-04-29T04:58:39.033Z,3960.00
2019-04-29T05:00:38.962Z,5876.00
2019-04-29T05:02:38.953Z,6624.00
2019-04-29T05:04:38.938Z,4396.00
2019-04-29T05:06:38.939Z,4408.00
2019-04-29T05:08:38.904Z,4432.00
2019-04-29T05:10:38.856Z,5684.00
2019-04-29T05:12:38.872Z,5812.00
2019-04-29T05:14:38.863Z,7000.00
2019-04-29T05:16:38.812Z,8340.00
2019-04-29T05:18:38.794Z,6672.00
2019-04-29T05:20:38.767Z,10696.00
2019-04-29T05:22:38.729Z,30368.00
2019-04-29T05:24:38.714Z,32768.00
2019-04-29T05:26:38.698Z,34656.00
2019-04-29T05:28:38.711Z,35104.00
2019-04-29T05:30:38.654Z,37632.00
2019-04-29T05:32:38.640Z,36992.00
2019-04-29T05:34:41.724Z,38848.00
2019-04-29T05:36:39.635Z,41312.00
2019-04-29T05:38:38.586Z,38688.00
2019-04-29T05:40:38.534Z,39296.00
2019-04-29T05:42:38.556Z,37024.00
2019-04-29T05:44:38.568Z,36608.00
2019-04-29T05:46:38.502Z,37440.00
2019-04-29T05:48:38.449Z,38208.00
2019-04-29T05:50:38.473Z,35232.00
2019-04-29T05:52:39.517Z,36960.00
2019-04-29T05:54:38.403Z,30784.00
2019-04-29T05:56:38.369Z,41824.00
2019-04-29T05:58:39.598Z,44992.00
2019-04-29T06:00:38.364Z,46976.00
2019-04-29T06:02:38.893Z,36672.00
2019-04-29T06:04:38.280Z,41888.00
2019-04-29T06:06:38.293Z,39232.00
2019-04-29T06:08:39.091Z,37568.00
2019-04-29T06:10:38.267Z,41984.00
2019-04-29T06:12:38.214Z,45184.00
2019-04-29T06:14:38.172Z,44000.00
2019-04-29T06:16:38.181Z,34560.00
2019-04-29T06:18:40.797Z,40416.00
2019-04-29T06:20:38.112Z,37376.00
2019-04-29T06:22:41.834Z,38208.00
2019-04-29T06:24:41.021Z,40288.00
2019-04-29T06:26:38.039Z,44512.00
2019-04-29T06:28:38.056Z,45024.00
2019-04-29T06:30:40.569Z,44928.00
2019-04-29T06:32:37.987Z,46176.00
2019-04-29T06:34:40.083Z,46688.00
2019-04-29T06:36:37.976Z,35552.00
2019-04-29T06:38:37.910Z,19072.00
2019-04-29T06:40:37.902Z,29376.00
2019-04-29T06:42:37.884Z,36928.00
2019-04-29T06:44:37.845Z,33920.00
2019-04-29T06:46:37.849Z,37984.00
2019-04-29T08:17:25.974Z,8512.00
2019-04-29T08:19:29.536Z,8272.00
2019-04-29T08:21:26.394Z,8152.00
2019-04-29T08:23:25.392Z,8172.00
2019-04-29T08:25:25.963Z,8068.00
2019-04-29T08:27:39.085Z,8280.00
2019-04-29T08:29:26.325Z,8056.00
2019-04-29T08:31:25.286Z,8244.00
2019-04-29T08:33:25.309Z,8176.00
2019-04-29T08:35:25.260Z,8232.00
2019-04-29T08:37:25.247Z,8188.00
2019-04-29T08:39:29.206Z,8356.00
2019-04-29T08:41:28.800Z,8364.00
2019-04-29T08:43:25.197Z,8832.00
2019-04-29T08:45:25.189Z,9368.00
2019-04-29T08:47:30.576Z,9548.00
2019-04-29T08:49:26.164Z,8992.00
2019-04-29T08:51:25.095Z,9416.00
2019-04-29T08:53:25.067Z,9832.00
2019-04-29T08:55:26.532Z,10604.00
2019-04-29T08:57:26.020Z,9884.00
2019-04-29T08:59:25.827Z,10900.00
2019-04-29T09:01:29.284Z,10752.00
2019-04-29T09:03:39.199Z,7096.00
2019-04-29T09:05:25.961Z,6852.00
2019-04-29T09:07:24.917Z,6520.00
2019-04-29T09:09:29.151Z,6280.00
2019-04-29T09:11:24.868Z,6404.00
2019-04-29T09:13:24.868Z,9684.00
2019-04-29T09:15:24.829Z,9652.00
2019-04-29T09:17:24.816Z,9352.00
2019-04-29T09:19:24.863Z,9984.00
2019-04-29T09:21:24.752Z,10216.00
2019-04-29T09:23:24.757Z,10204.00
2019-04-29T09:25:26.109Z,9292.00
2019-04-29T09:27:24.694Z,7932.00
2019-04-29T09:29:24.684Z,6940.00
2019-04-29T09:31:24.671Z,9596.00
2019-04-29T09:33:24.654Z,10552.00
2019-04-29T09:35:24.618Z,10708.00
2019-04-29T09:37:24.615Z,10312.00
2019-04-29T09:39:24.566Z,9604.00
2019-04-29T09:41:24.566Z,6832.00
2019-04-29T09:43:25.938Z,6436.00
2019-04-29T09:45:24.621Z,9280.00
2019-04-29T09:47:24.485Z,9332.00
2019-04-29T09:49:24.452Z,9488.00
2019-04-29T09:51:27.750Z,9184.00
2019-04-29T09:53:24.418Z,9208.00
2019-04-29T09:55:24.405Z,9564.00
2019-04-29T09:57:24.380Z,9664.00
2019-04-29T09:59:24.357Z,9912.00
2019-04-29T10:01:24.322Z,10208.00
2019-04-29T10:03:24.366Z,9628.00
2019-04-29T10:05:24.313Z,8384.00
2019-04-29T10:07:24.263Z,10368.00
2019-04-29T10:09:24.247Z,10972.00
2019-04-29T10:11:24.207Z,9576.00
2019-04-29T10:13:24.225Z,10076.00
2019-04-29T10:15:24.175Z,9760.00
2019-04-29T10:17:24.146Z,9420.00
2019-04-29T10:19:24.198Z,8988.00
2019-04-29T10:21:24.110Z,8948.00
2019-04-29T10:23:24.085Z,9796.00
2019-04-29T10:25:24.064Z,10768.00
2019-04-29T10:27:24.061Z,11336.00
2019-04-29T10:29:25.752Z,10968.00
2019-04-29T10:31:24.006Z,10668.00
2019-04-29T10:33:24.035Z,7228.00
2019-04-29T10:35:23.985Z,7560.00
2019-04-29T10:37:31.308Z,8216.00
2019-04-29T10:39:24.919Z,8172.00
2019-04-29T10:48:47.793Z,9148.00
2019-04-29T11:06:45.465Z,8120.00
2019-04-29T11:08:33.766Z,6684.00
2019-04-29T11:21:21.173Z,10244.00
2019-04-29T11:23:21.158Z,10496.00
2019-04-29T11:25:21.115Z,10528.00
2019-04-29T11:27:21.095Z,10164.00
2019-04-29T11:29:22.009Z,8848.00
2019-04-29T11:31:22.066Z,7436.00
2019-04-29T11:33:21.035Z,9728.00
2019-04-29T11:35:24.575Z,9628.00
2019-04-29T11:37:23.945Z,8544.00
2019-04-29T11:39:20.978Z,9348.00
2019-04-29T11:41:21.027Z,10024.00
2019-04-29T11:43:20.937Z,9660.00
2019-04-29T11:45:20.908Z,7536.00
2019-04-29T11:47:24.944Z,7076.00
2019-04-29T11:49:20.892Z,7308.00
2019-04-29T11:51:20.836Z,7460.00
2019-04-29T11:53:20.829Z,7304.00
2019-04-29T11:55:20.837Z,7296.00
2019-04-29T11:57:20.798Z,7584.00
2019-04-29T11:59:20.878Z,9552.00
2019-04-29T12:01:20.748Z,9796.00
2019-04-29T12:03:20.730Z,7556.00
2019-04-29T12:05:20.696Z,7008.00
2019-04-29T12:07:21.196Z,6960.00
2019-04-29T12:09:20.668Z,7124.00
2019-04-29T12:11:20.647Z,7432.00
2019-04-29T12:13:27.142Z,7820.00
2019-04-29T12:15:21.584Z,8820.00
2019-04-29T12:17:20.581Z,9588.00
2019-04-29T12:19:21.283Z,10024.00
2019-04-29T12:21:20.540Z,11448.00
2019-04-29T12:23:20.539Z,11692.00
2019-04-29T12:25:23.038Z,11716.00
2019-04-29T12:27:21.744Z,11352.00
2019-04-29T12:29:20.523Z,9180.00
2019-04-29T12:31:20.405Z,7792.00
2019-04-29T12:33:20.379Z,8892.00
2019-04-29T12:35:21.694Z,8664.00
2019-04-29T12:37:20.360Z,9352.00
2019-04-29T12:39:42.243Z,9996.00
2019-04-29T12:41:25.412Z,10456.00
2019-04-29T12:43:21.269Z,11008.00
2019-04-29T12:45:20.254Z,11256.00
2019-04-29T12:47:26.747Z,11256.00
2019-04-29T12:49:21.225Z,11056.00
2019-04-29T12:51:20.200Z,10384.00
2019-04-29T12:53:20.168Z,10076.00
2019-04-29T12:55:29.354Z,10552.00
2019-04-29T12:57:23.578Z,10688.00
2019-04-29T12:59:20.226Z,10856.00
2019-04-29T13:01:20.071Z,10480.00
2019-04-29T13:03:20.063Z,10044.00
2019-04-29T13:05:20.050Z,9836.00
2019-04-29T13:07:20.015Z,8952.00
2019-04-29T13:09:20.001Z,8440.00
2019-04-29T13:11:22.342Z,8228.00
2019-04-29T13:13:22.013Z,8408.00
2019-04-29T13:15:19.930Z,8180.00
2019-04-29T13:17:19.900Z,8104.00
2019-04-29T13:19:20.666Z,7556.00
2019-04-29T13:21:19.874Z,7512.00
2019-04-29T13:23:32.988Z,8052.00
2019-04-29T13:25:20.974Z,8024.00
2019-04-29T13:27:20.845Z,8712.00
2019-04-29T13:29:27.245Z,8060.00
2019-04-29T13:31:37.025Z,9080.00
2019-04-29T13:33:20.724Z,9332.00
2019-04-29T13:35:19.705Z,9228.00
2019-04-29T13:37:20.047Z,8500.00
2019-04-29T13:39:37.866Z,9244.00
2019-04-29T13:41:24.344Z,9256.00
2019-04-29T13:43:25.333Z,9292.00
2019-04-29T13:45:24.881Z,8940.00
2019-04-29T13:47:28.353Z,8856.00
2019-04-29T13:49:20.557Z,8556.00
2019-04-29T13:51:34.814Z,8116.00
2019-04-29T13:53:20.511Z,7856.00
2019-04-29T13:55:46.223Z,7840.00
2019-04-29T13:57:20.460Z,7780.00
2019-04-29T13:59:19.567Z,7636.00
2019-04-29T14:01:24.654Z,6452.00
2019-04-29T14:03:20.393Z,5896.00
2019-04-29T14:05:19.407Z,6120.00
2019-04-29T14:07:19.874Z,6404.00
2019-04-29T14:09:19.329Z,6680.00
2019-04-29T14:11:21.947Z,6820.00
2019-04-29T14:13:21.049Z,6732.00
2019-04-29T14:15:19.721Z,6752.00
2019-04-29T14:17:26.408Z,6888.00
2019-04-29T14:19:39.458Z,7040.00
2019-04-29T14:21:20.198Z,7164.00
2019-04-29T14:23:19.204Z,7276.00
2019-04-29T14:25:19.159Z,7384.00
2019-04-29T14:27:24.955Z,7644.00
2019-04-29T14:29:22.841Z,8052.00
2019-04-29T14:31:22.674Z,7660.00
2019-04-29T14:33:24.059Z,7468.00
2019-04-29T14:35:20.061Z,7540.00
2019-04-29T14:37:24.464Z,7436.00
2019-04-29T14:39:36.098Z,7652.00
2019-04-29T14:41:20.954Z,7768.00
2019-04-29T14:43:28.620Z,7928.00
2019-04-29T14:45:19.945Z,7728.00
2019-04-29T14:47:18.922Z,7492.00
2019-04-29T14:49:19.039Z,7180.00
2019-04-29T14:51:18.892Z,7296.00
2019-04-29T14:53:19.480Z,7784.00
2019-04-29T14:55:20.066Z,8124.00
2019-04-29T14:57:19.816Z,7688.00
2019-04-29T14:59:19.131Z,7376.00
2019-04-29T15:01:18.822Z,7096.00
2019-04-29T15:03:18.767Z,6860.00
2019-04-29T15:05:18.854Z,6732.00
2019-04-29T15:07:18.755Z,6724.00
2019-04-29T15:09:19.987Z,6672.00
2019-04-29T15:11:32.235Z,6580.00
2019-04-29T15:13:21.643Z,6652.00
2019-04-29T15:15:18.624Z,6760.00
2019-04-29T15:17:18.606Z,6924.00
2019-04-29T15:19:18.570Z,6876.00
2019-04-29T15:21:31.665Z,6616.00
2019-04-29T15:23:28.362Z,6316.00
2019-04-29T15:25:21.007Z,6008.00
2019-04-29T15:27:18.503Z,5844.00
2019-04-29T15:29:18.468Z,5780.00
2019-04-29T15:31:18.456Z,5812.00
2019-04-29T15:33:18.428Z,5844.00
2019-04-29T15:35:19.896Z,5868.00
2019-04-29T15:37:19.390Z,5792.00
2019-04-29T15:39:18.583Z,5476.00
2019-04-29T15:41:18.590Z,5244.00
2019-04-29T15:43:24.459Z,4924.00
2019-04-29T15:45:19.295Z,4556.00
2019-04-29T15:47:18.344Z,4332.00
2019-04-29T15:49:20.204Z,4132.00
2019-04-29T15:51:19.234Z,3880.00
2019-04-29T15:53:18.219Z,3620.00
2019-04-29T15:55:18.238Z,3260.00
2019-04-29T15:57:18.181Z,3048.00
2019-04-29T15:59:18.150Z,2992.00
2019-04-29T16:01:27.284Z,3288.00
2019-04-29T16:03:20.230Z,3568.00
2019-04-29T16:05:18.085Z,3456.00
2019-04-29T16:07:19.107Z,3204.00
2019-04-29T16:09:18.032Z,3120.00
2019-04-29T16:11:18.019Z,3260.00
2019-04-29T16:13:22.397Z,3092.00
2019-04-29T16:15:18.960Z,2988.00
2019-04-29T16:17:20.564Z,3088.00
2019-04-29T16:19:17.954Z,3068.00
2019-04-29T16:21:17.902Z,2652.00
2019-04-29T16:23:17.888Z,2168.00
2019-04-29T16:25:17.876Z,2020.00
2019-04-29T16:27:17.832Z,1684.00
2019-04-29T16:29:17.853Z,1536.00
2019-04-29T16:31:17.826Z,1640.00
2019-04-29T16:33:17.819Z,1704.00
2019-04-29T16:35:23.204Z,1856.00
2019-04-29T16:37:19.549Z,2032.00
2019-04-29T16:39:17.701Z,2084.00
2019-04-29T16:41:19.453Z,1960.00
2019-04-29T16:43:17.685Z,1768.00
2019-04-29T16:45:17.651Z,1544.00
2019-04-29T16:47:17.696Z,1512.00
2019-04-29T16:49:17.622Z,1756.00
2019-04-29T16:51:17.586Z,2248.00
2019-04-29T16:53:17.576Z,2380.00
2019-04-29T16:55:17.545Z,2096.00
2019-04-29T16:57:17.525Z,1944.00
2019-04-29T16:59:17.497Z,1812.00
2019-04-29T17:01:17.463Z,1500.00
2019-04-29T17:03:17.464Z,1208.00
2019-04-29T17:05:17.444Z,1060.00
2019-04-29T17:07:17.406Z,980.00
2019-04-29T17:09:22.745Z,924.00
2019-04-29T17:11:19.542Z,908.00
2019-04-29T17:13:23.362Z,904.00
2019-04-29T17:15:25.095Z,932.00
2019-04-29T17:17:18.323Z,948.00
2019-04-29T17:19:17.263Z,944.00
2019-04-29T17:21:17.258Z,960.00
2019-04-29T17:23:23.926Z,992.00
2019-04-29T17:25:18.232Z,1100.00
2019-04-29T17:27:17.185Z,1228.00
2019-04-29T17:29:38.569Z,1288.00
2019-04-29T17:31:18.690Z,1260.00
2019-04-29T17:33:26.392Z,1116.00
2019-04-29T17:35:21.482Z,952.00
2019-04-29T17:37:17.084Z,804.00
2019-04-29T17:39:17.052Z,808.00
2019-04-29T17:41:17.057Z,788.00
2019-04-29T17:43:17.010Z,704.00
2019-04-29T17:45:27.180Z,620.00
2019-04-29T17:47:17.990Z,568.00
2019-04-29T17:49:16.952Z,508.00
2019-04-29T17:51:16.925Z,464.00
2019-04-29T17:53:17.547Z,460.00
2019-04-29T17:55:16.890Z,432.00
2019-04-29T17:57:28.293Z,396.00
2019-04-29T17:59:17.854Z,372.00
2019-04-29T18:01:16.839Z,344.00
2019-04-29T18:03:16.809Z,312.00
2019-04-29T18:05:17.015Z,288.00
2019-04-29T18:07:16.878Z,276.00
2019-04-29T18:09:16.733Z,256.00
2019-04-29T18:11:16.712Z,232.00
2019-04-29T18:13:23.560Z,216.00
2019-04-29T18:15:20.175Z,224.00
2019-04-29T18:17:24.233Z,220.00
2019-04-29T18:19:17.621Z,212.00
2019-04-29T18:21:16.608Z,200.00
2019-04-29T18:23:19.060Z,188.00
2019-04-29T18:25:16.558Z,176.00
2019-04-29T18:27:16.538Z,160.00
2019-04-29T18:57:59.583Z,12.00
2019-04-29T18:59:59.113Z,8.00
2019-04-29T19:23:10.337Z,0.00
2019-04-29T19:32:44.509Z,0.00
2019-04-29T19:34:50.228Z,0.00
2019-04-29T19:39:16.962Z,0.00
2019-04-29T19:50:51.669Z,0.00
2019-04-29T19:52:35.075Z,0.00
2019-04-29T19:59:51.463Z,0.00
2019-04-29T20:03:24.323Z,0.00
2019-04-29T20:04:58.886Z,0.00
2019-04-29T20:06:58.633Z,0.00
2019-04-29T20:14:30.351Z,0.00
2019-04-29T20:16:40.571Z,0.00
2019-04-29T20:27:26.051Z,0.00
2019-04-29T20:32:07.887Z,0.00
2019-04-29T20:34:10.177Z,0.00
2019-04-29T20:36:02.218Z,0.00
2019-04-29T20:38:00.142Z,0.00
2019-04-29T20:40:01.403Z,0.00
2019-04-29T20:44:49.264Z,0.00
2019-04-29T20:46:56.927Z,0.00
2019-04-29T20:48:59.664Z,0.00
2019-04-29T20:51:14.159Z,0.00
2019-04-29T20:52:45.456Z,0.00
2019-04-29T20:57:41.934Z,0.00
2019-04-29T20:59:19.988Z,0.00
2019-04-29T21:01:29.845Z,0.00
2019-04-29T21:04:46.460Z,0.00
2019-04-29T21:06:25.111Z,0.00
2019-04-29T21:34:17.536Z,0.00
2019-04-29T21:36:15.425Z,0.00
2019-04-29T21:38:17.786Z,0.00
2019-04-29T21:48:25.650Z,0.00
2019-04-29T21:50:15.171Z,0.00
2019-04-29T21:58:34.091Z,0.00
2019-04-29T22:11:26.711Z,0.00
2019-04-29T22:25:13.018Z,0.00
2019-04-29T22:27:12.320Z,0.00
2019-04-29T22:29:08.951Z,0.00
2019-04-29T22:31:18.228Z,0.00
2019-04-29T22:33:08.883Z,0.00
2019-04-29T22:35:08.864Z,0.00
2019-04-29T22:37:08.856Z,0.00
2019-04-29T22:39:08.815Z,0.00
2019-04-29T22:41:11.835Z,0.00
2019-04-29T22:43:10.250Z,0.00
2019-04-29T22:45:08.773Z,0.00
2019-04-29T22:47:08.734Z,0.00
2019-04-29T22:49:08.721Z,0.00
2019-04-29T22:51:10.154Z,0.00
2019-04-29T22:53:09.671Z,0.00
2019-04-29T22:55:08.652Z,0.00
2019-04-29T22:57:08.647Z,0.00
2019-04-29T22:59:08.606Z,0.00
2019-04-29T23:01:08.645Z,0.00
2019-04-29T23:03:08.591Z,0.00
2019-04-29T23:05:08.580Z,0.00
2019-04-29T23:07:08.571Z,0.00
2019-04-29T23:09:12.061Z,0.00
2019-04-29T23:11:08.478Z,0.00
2019-04-29T23:13:08.468Z,0.00
2019-04-29T23:15:08.439Z,0.00
2019-04-29T23:17:12.325Z,0.00
2019-04-29T23:19:09.778Z,0.00
2019-04-29T23:21:08.383Z,0.00
2019-04-29T23:23:08.353Z,0.00
2019-04-29T23:25:08.331Z,0.00
2019-04-29T23:27:11.605Z,0.00
2019-04-29T23:29:09.301Z,0.00
